Terminal Aerodrome Forecast
Issued by NWS

Current Version | Previous Version | Text Only | Print | Product List | Glossary Off
Versions: 1 2 3 4 5 6 7 8 9 10 11 12 13 14 15 16 17 18 19

000
FTUS41 KRNK 261723
TAFLWB
TAF
KLWB 261723Z 2618/2718 21006KT P6SM VCSH BKN025 OVC050
     FM262200 24005KT 5SM TSRA OVC025CB
     FM270100 26004KT 3SM SHRA BR OVC015
     FM270600 28004KT P6SM SCT015 BKN100
     FM271000 00000KT 1SM BR VV007
     FM271100 28002KT 1/4SM FG OVC001
     FM271500 32007KT P6SM SCT018 OVC035=

USA.gov is the U.S. government's official web portal to all federal, state and local government web resources and services.